sensor_id;sensor_type;location;lat;lon;timestamp;temperature;humidity
7461;DHT22;6757;52.258;12.840;2023-11-21T00:00:14;8.20;99.90
7461;DHT22;6757;52.258;12.840;2023-11-21T00:02:43;8.20;99.90
7461;DHT22;6757;52.258;12.840;2023-11-21T00:05:13;8.20;99.90
7461;DHT22;6757;52.258;12.840;2023-11-21T00:07:41;8.20;99.90
7461;DHT22;6757;52.258;12.840;2023-11-21T00:10:11;8.20;99.90
7461;DHT22;6757;52.258;12.840;2023-11-21T00:12:41;8.20;99.90
7461;DHT22;6757;52.258;12.840;2023-11-21T00:15:09;8.10;99.90
7461;DHT22;6757;52.258;12.840;2023-11-21T00:17:37;8.20;99.90
7461;DHT22;6757;52.258;12.840;2023-11-21T00:20:06;8.20;99.90
7461;DHT22;6757;52.258;12.840;2023-11-21T00:22:35;8.10;99.90
7461;DHT22;6757;52.258;12.840;2023-11-21T00:25:04;8.10;99.90
7461;DHT22;6757;52.258;12.840;2023-11-21T00:27:31;8.10;99.90
7461;DHT22;6757;52.258;12.840;2023-11-21T00:29:58;8.10;99.90
7461;DHT22;6757;52.258;12.840;2023-11-21T00:32:25;8.10;99.90
7461;DHT22;6757;52.258;12.840;2023-11-21T00:34:52;8.20;99.90
7461;DHT22;6757;52.258;12.840;2023-11-21T00:37:20;8.20;99.90
7461;DHT22;6757;52.258;12.840;2023-11-21T00:39:48;8.10;99.90
7461;DHT22;6757;52.258;12.840;2023-11-21T00:42:15;8.10;99.90
7461;DHT22;6757;52.258;12.840;2023-11-21T00:44:42;8.10;99.90
7461;DHT22;6757;52.258;12.840;2023-11-21T00:47:09;8.10;99.90
7461;DHT22;6757;52.258;12.840;2023-11-21T00:49:35;8.10;99.90
7461;DHT22;6757;52.258;12.840;2023-11-21T00:52:05;8.10;99.90
7461;DHT22;6757;52.258;12.840;2023-11-21T00:54:32;8.10;99.90
7461;DHT22;6757;52.258;12.840;2023-11-21T00:57:03;8.10;99.90
7461;DHT22;6757;52.258;12.840;2023-11-21T00:59:31;8.10;99.90
7461;DHT22;6757;52.258;12.840;2023-11-21T01:01:59;8.10;99.90
7461;DHT22;6757;52.258;12.840;2023-11-21T01:04:27;8.10;99.90
7461;DHT22;6757;52.258;12.840;2023-11-21T01:06:54;8.10;99.90
7461;DHT22;6757;52.258;12.840;2023-11-21T01:09:21;8.10;99.90
7461;DHT22;6757;52.258;12.840;2023-11-21T01:11:49;8.00;99.90
7461;DHT22;6757;52.258;12.840;2023-11-21T01:14:21;8.10;99.90
7461;DHT22;6757;52.258;12.840;2023-11-21T01:16:49;8.10;99.90
7461;DHT22;6757;52.258;12.840;2023-11-21T01:19:16;8.10;99.90
7461;DHT22;6757;52.258;12.840;2023-11-21T01:21:43;8.10;99.90
7461;DHT22;6757;52.258;12.840;2023-11-21T01:24:11;8.10;99.90
7461;DHT22;6757;52.258;12.840;2023-11-21T01:26:38;8.00;99.90
7461;DHT22;6757;52.258;12.840;2023-11-21T01:29:04;8.10;99.90
7461;DHT22;6757;52.258;12.840;2023-11-21T01:31:33;8.00;99.90
7461;DHT22;6757;52.258;12.840;2023-11-21T01:34:00;8.00;99.90
7461;DHT22;6757;52.258;12.840;2023-11-21T01:36:30;8.00;99.90
7461;DHT22;6757;52.258;12.840;2023-11-21T01:38:58;8.00;99.90
7461;DHT22;6757;52.258;12.840;2023-11-21T01:41:26;8.00;99.90
7461;DHT22;6757;52.258;12.840;2023-11-21T01:43:54;8.00;99.90
7461;DHT22;6757;52.258;12.840;2023-11-21T01:46:22;8.00;99.90
7461;DHT22;6757;52.258;12.840;2023-11-21T01:48:52;8.00;99.90
7461;DHT22;6757;52.258;12.840;2023-11-21T01:51:20;8.00;99.90
7461;DHT22;6757;52.258;12.840;2023-11-21T01:53:47;8.00;99.90
7461;DHT22;6757;52.258;12.840;2023-11-21T01:56:15;8.00;99.90
7461;DHT22;6757;52.258;12.840;2023-11-21T01:58:45;8.00;99.90
7461;DHT22;6757;52.258;12.840;2023-11-21T02:01:13;8.00;99.90
7461;DHT22;6757;52.258;12.840;2023-11-21T02:03:40;8.00;99.90
7461;DHT22;6757;52.258;12.840;2023-11-21T02:06:09;8.10;99.90
7461;DHT22;6757;52.258;12.840;2023-11-21T02:08:36;8.10;99.90
7461;DHT22;6757;52.258;12.840;2023-11-21T02:11:05;8.20;99.90
7461;DHT22;6757;52.258;12.840;2023-11-21T02:13:34;8.10;99.90
7461;DHT22;6757;52.258;12.840;2023-11-21T02:16:01;8.10;99.90
7461;DHT22;6757;52.258;12.840;2023-11-21T02:18:30;8.10;99.90
7461;DHT22;6757;52.258;12.840;2023-11-21T02:20:59;8.00;99.90
7461;DHT22;6757;52.258;12.840;2023-11-21T02:23:29;8.00;99.90
7461;DHT22;6757;52.258;12.840;2023-11-21T02:25:56;8.00;99.90
7461;DHT22;6757;52.258;12.840;2023-11-21T02:28:24;8.00;99.90
7461;DHT22;6757;52.258;12.840;2023-11-21T02:30:51;7.90;99.90
7461;DHT22;6757;52.258;12.840;2023-11-21T02:33:23;7.80;99.90
7461;DHT22;6757;52.258;12.840;2023-11-21T02:35:50;7.80;99.90
7461;DHT22;6757;52.258;12.840;2023-11-21T02:38:20;7.70;99.90
7461;DHT22;6757;52.258;12.840;2023-11-21T02:40:50;7.50;99.90
7461;DHT22;6757;52.258;12.840;2023-11-21T02:43:17;7.50;99.90
7461;DHT22;6757;52.258;12.840;2023-11-21T02:45:45;7.40;99.90
7461;DHT22;6757;52.258;12.840;2023-11-21T02:48:12;7.40;99.90
7461;DHT22;6757;52.258;12.840;2023-11-21T02:50:39;7.30;99.90
7461;DHT22;6757;52.258;12.840;2023-11-21T02:53:08;7.20;99.90
7461;DHT22;6757;52.258;12.840;2023-11-21T02:55:36;7.20;99.90
7461;DHT22;6757;52.258;12.840;2023-11-21T02:58:05;7.10;99.90
7461;DHT22;6757;52.258;12.840;2023-11-21T03:00:32;7.10;99.90
7461;DHT22;6757;52.258;12.840;2023-11-21T03:02:59;7.00;99.90
7461;DHT22;6757;52.258;12.840;2023-11-21T03:05:28;7.00;99.90
7461;DHT22;6757;52.258;12.840;2023-11-21T03:07:56;7.00;99.90
7461;DHT22;6757;52.258;12.840;2023-11-21T03:10:23;7.00;99.90
7461;DHT22;6757;52.258;12.840;2023-11-21T03:12:50;6.80;99.90
7461;DHT22;6757;52.258;12.840;2023-11-21T03:15:20;6.90;99.90
7461;DHT22;6757;52.258;12.840;2023-11-21T03:17:46;6.90;99.90
7461;DHT22;6757;52.258;12.840;2023-11-21T03:20:14;6.80;99.90
7461;DHT22;6757;52.258;12.840;2023-11-21T03:22:42;6.80;99.90
7461;DHT22;6757;52.258;12.840;2023-11-21T03:25:10;6.80;99.90
7461;DHT22;6757;52.258;12.840;2023-11-21T03:27:38;6.80;99.90
7461;DHT22;6757;52.258;12.840;2023-11-21T03:30:09;6.70;99.90
7461;DHT22;6757;52.258;12.840;2023-11-21T03:32:38;6.80;99.90
7461;DHT22;6757;52.258;12.840;2023-11-21T03:35:06;6.80;99.90
7461;DHT22;6757;52.258;12.840;2023-11-21T03:37:35;6.70;99.90
7461;DHT22;6757;52.258;12.840;2023-11-21T03:40:04;6.70;99.90
7461;DHT22;6757;52.258;12.840;2023-11-21T03:42:33;6.70;99.90
7461;DHT22;6757;52.258;12.840;2023-11-21T03:45:01;6.60;99.90
7461;DHT22;6757;52.258;12.840;2023-11-21T03:47:30;6.70;99.90
7461;DHT22;6757;52.258;12.840;2023-11-21T03:49:58;6.60;99.90
7461;DHT22;6757;52.258;12.840;2023-11-21T03:52:25;6.60;99.90
7461;DHT22;6757;52.258;12.840;2023-11-21T03:54:53;6.50;99.90
7461;DHT22;6757;52.258;12.840;2023-11-21T03:57:23;6.50;99.90
7461;DHT22;6757;52.258;12.840;2023-11-21T03:59:50;6.40;99.90
7461;DHT22;6757;52.258;12.840;2023-11-21T04:02:17;6.40;99.90
7461;DHT22;6757;52.258;12.840;2023-11-21T04:04:44;6.40;99.90
7461;DHT22;6757;52.258;12.840;2023-11-21T04:07:13;6.40;99.90
7461;DHT22;6757;52.258;12.840;2023-11-21T04:09:39;6.40;99.90
7461;DHT22;6757;52.258;12.840;2023-11-21T04:12:07;6.30;99.90
7461;DHT22;6757;52.258;12.840;2023-11-21T04:14:35;6.30;99.90
7461;DHT22;6757;52.258;12.840;2023-11-21T04:17:01;6.30;99.90
7461;DHT22;6757;52.258;12.840;2023-11-21T04:19:29;6.20;99.90
7461;DHT22;6757;52.258;12.840;2023-11-21T04:21:57;6.20;99.90
7461;DHT22;6757;52.258;12.840;2023-11-21T04:24:25;6.20;99.90
7461;DHT22;6757;52.258;12.840;2023-11-21T04:26:53;6.10;99.90
7461;DHT22;6757;52.258;12.840;2023-11-21T04:29:21;6.00;99.90
7461;DHT22;6757;52.258;12.840;2023-11-21T04:31:49;6.00;99.90
7461;DHT22;6757;52.258;12.840;2023-11-21T04:34:15;6.00;99.90
7461;DHT22;6757;52.258;12.840;2023-11-21T04:36:43;6.00;99.90
7461;DHT22;6757;52.258;12.840;2023-11-21T04:39:10;6.00;99.90
7461;DHT22;6757;52.258;12.840;2023-11-21T04:41:39;6.00;99.90
7461;DHT22;6757;52.258;12.840;2023-11-21T04:44:05;6.00;99.90
7461;DHT22;6757;52.258;12.840;2023-11-21T04:46:32;6.00;99.90
7461;DHT22;6757;52.258;12.840;2023-11-21T04:48:59;5.90;99.90
7461;DHT22;6757;52.258;12.840;2023-11-21T04:51:27;5.80;99.90
7461;DHT22;6757;52.258;12.840;2023-11-21T04:53:54;5.90;99.90
7461;DHT22;6757;52.258;12.840;2023-11-21T04:56:20;5.90;99.90
7461;DHT22;6757;52.258;12.840;2023-11-21T04:58:49;5.80;99.90
7461;DHT22;6757;52.258;12.840;2023-11-21T05:01:16;5.80;99.90
7461;DHT22;6757;52.258;12.840;2023-11-21T05:03:43;5.80;99.90
7461;DHT22;6757;52.258;12.840;2023-11-21T05:06:10;5.90;99.90
7461;DHT22;6757;52.258;12.840;2023-11-21T05:08:37;5.80;99.90
7461;DHT22;6757;52.258;12.840;2023-11-21T05:11:04;5.80;99.90
7461;DHT22;6757;52.258;12.840;2023-11-21T05:13:33;5.80;99.90
7461;DHT22;6757;52.258;12.840;2023-11-21T05:16:03;5.80;99.90
7461;DHT22;6757;52.258;12.840;2023-11-21T05:18:32;5.80;99.90
7461;DHT22;6757;52.258;12.840;2023-11-21T05:21:00;5.70;99.90
7461;DHT22;6757;52.258;12.840;2023-11-21T05:23:27;5.70;99.90
7461;DHT22;6757;52.258;12.840;2023-11-21T05:25:54;5.80;99.90
7461;DHT22;6757;52.258;12.840;2023-11-21T05:28:23;5.70;99.90
7461;DHT22;6757;52.258;12.840;2023-11-21T05:30:50;5.70;99.90
7461;DHT22;6757;52.258;12.840;2023-11-21T05:33:20;5.70;99.90
7461;DHT22;6757;52.258;12.840;2023-11-21T05:35:47;5.70;99.90
7461;DHT22;6757;52.258;12.840;2023-11-21T05:38:15;5.80;99.90
7461;DHT22;6757;52.258;12.840;2023-11-21T05:40:42;5.90;99.90
7461;DHT22;6757;52.258;12.840;2023-11-21T05:43:09;5.90;99.90
7461;DHT22;6757;52.258;12.840;2023-11-21T05:45:37;5.90;99.90
7461;DHT22;6757;52.258;12.840;2023-11-21T05:48:04;5.90;99.90
7461;DHT22;6757;52.258;12.840;2023-11-21T05:50:33;5.90;99.90
7461;DHT22;6757;52.258;12.840;2023-11-21T05:52:59;5.90;99.90
7461;DHT22;6757;52.258;12.840;2023-11-21T05:55:26;5.90;99.90
7461;DHT22;6757;52.258;12.840;2023-11-21T05:57:54;5.90;99.90
7461;DHT22;6757;52.258;12.840;2023-11-21T06:00:22;5.80;99.90
7461;DHT22;6757;52.258;12.840;2023-11-21T06:02:51;5.90;99.90
7461;DHT22;6757;52.258;12.840;2023-11-21T06:05:19;5.80;99.90
7461;DHT22;6757;52.258;12.840;2023-11-21T06:07:50;5.80;99.90
7461;DHT22;6757;52.258;12.840;2023-11-21T06:10:19;5.80;99.90
7461;DHT22;6757;52.258;12.840;2023-11-21T06:12:46;5.70;99.90
7461;DHT22;6757;52.258;12.840;2023-11-21T06:15:14;5.70;99.90
7461;DHT22;6757;52.258;12.840;2023-11-21T06:17:44;5.70;99.90
7461;DHT22;6757;52.258;12.840;2023-11-21T06:20:15;5.60;99.90
7461;DHT22;6757;52.258;12.840;2023-11-21T06:22:44;5.50;99.90
7461;DHT22;6757;52.258;12.840;2023-11-21T06:25:16;5.60;99.90
7461;DHT22;6757;52.258;12.840;2023-11-21T06:27:44;5.60;99.90
7461;DHT22;6757;52.258;12.840;2023-11-21T06:30:13;5.60;99.90
7461;DHT22;6757;52.258;12.840;2023-11-21T06:32:41;5.50;99.90
7461;DHT22;6757;52.258;12.840;2023-11-21T06:35:10;5.60;99.90
7461;DHT22;6757;52.258;12.840;2023-11-21T06:37:38;5.50;99.90
7461;DHT22;6757;52.258;12.840;2023-11-21T06:40:06;5.50;99.90
7461;DHT22;6757;52.258;12.840;2023-11-21T06:42:38;5.50;99.90
7461;DHT22;6757;52.258;12.840;2023-11-21T06:45:07;5.50;99.90
7461;DHT22;6757;52.258;12.840;2023-11-21T06:47:36;5.40;99.90
7461;DHT22;6757;52.258;12.840;2023-11-21T06:50:05;5.40;99.90
7461;DHT22;6757;52.258;12.840;2023-11-21T06:52:33;5.40;99.90
7461;DHT22;6757;52.258;12.840;2023-11-21T06:55:00;5.40;99.90
7461;DHT22;6757;52.258;12.840;2023-11-21T06:57:28;5.40;99.90
7461;DHT22;6757;52.258;12.840;2023-11-21T06:59:56;5.40;99.90
7461;DHT22;6757;52.258;12.840;2023-11-21T07:02:23;5.40;99.90
7461;DHT22;6757;52.258;12.840;2023-11-21T07:04:51;5.50;99.90
7461;DHT22;6757;52.258;12.840;2023-11-21T07:07:18;5.30;99.90
7461;DHT22;6757;52.258;12.840;2023-11-21T07:09:45;5.30;99.90
7461;DHT22;6757;52.258;12.840;2023-11-21T07:12:13;5.30;99.90
7461;DHT22;6757;52.258;12.840;2023-11-21T07:14:40;5.40;99.90
7461;DHT22;6757;52.258;12.840;2023-11-21T07:17:11;5.30;99.90
7461;DHT22;6757;52.258;12.840;2023-11-21T07:19:39;5.30;99.90
7461;DHT22;6757;52.258;12.840;2023-11-21T07:22:06;5.30;99.90
7461;DHT22;6757;52.258;12.840;2023-11-21T07:24:34;5.20;99.90
7461;DHT22;6757;52.258;12.840;2023-11-21T07:27:04;5.20;99.90
7461;DHT22;6757;52.258;12.840;2023-11-21T07:29:31;5.20;99.90
7461;DHT22;6757;52.258;12.840;2023-11-21T07:32:00;5.20;99.90
7461;DHT22;6757;52.258;12.840;2023-11-21T07:34:29;5.20;99.90
7461;DHT22;6757;52.258;12.840;2023-11-21T07:36:56;5.20;99.90
7461;DHT22;6757;52.258;12.840;2023-11-21T07:39:22;5.00;99.90
7461;DHT22;6757;52.258;12.840;2023-11-21T07:41:51;5.10;99.90
7461;DHT22;6757;52.258;12.840;2023-11-21T07:44:18;5.10;99.90
7461;DHT22;6757;52.258;12.840;2023-11-21T07:46:45;5.20;99.90
7461;DHT22;6757;52.258;12.840;2023-11-21T07:49:15;5.30;99.90
7461;DHT22;6757;52.258;12.840;2023-11-21T07:51:47;5.10;99.90
7461;DHT22;6757;52.258;12.840;2023-11-21T07:54:13;5.00;99.90
7461;DHT22;6757;52.258;12.840;2023-11-21T07:56:41;5.00;99.90
7461;DHT22;6757;52.258;12.840;2023-11-21T07:59:08;4.90;99.90
7461;DHT22;6757;52.258;12.840;2023-11-21T08:01:35;5.00;99.90
7461;DHT22;6757;52.258;12.840;2023-11-21T08:04:03;4.90;99.90
7461;DHT22;6757;52.258;12.840;2023-11-21T08:06:31;4.90;99.90
7461;DHT22;6757;52.258;12.840;2023-11-21T08:09:00;4.90;99.90
7461;DHT22;6757;52.258;12.840;2023-11-21T08:11:27;4.90;99.90
7461;DHT22;6757;52.258;12.840;2023-11-21T08:13:57;4.90;99.90
7461;DHT22;6757;52.258;12.840;2023-11-21T08:16:25;5.00;99.90
7461;DHT22;6757;52.258;12.840;2023-11-21T08:18:52;4.90;99.90
7461;DHT22;6757;52.258;12.840;2023-11-21T08:21:22;5.00;99.90
7461;DHT22;6757;52.258;12.840;2023-11-21T08:23:52;4.90;99.90
7461;DHT22;6757;52.258;12.840;2023-11-21T08:26:22;4.90;99.90
7461;DHT22;6757;52.258;12.840;2023-11-21T08:28:48;4.80;99.90
7461;DHT22;6757;52.258;12.840;2023-11-21T08:31:17;4.90;99.90
7461;DHT22;6757;52.258;12.840;2023-11-21T08:33:49;4.90;99.90
7461;DHT22;6757;52.258;12.840;2023-11-21T08:36:16;4.80;99.90
7461;DHT22;6757;52.258;12.840;2023-11-21T08:38:46;4.80;99.90
7461;DHT22;6757;52.258;12.840;2023-11-21T08:41:14;4.80;99.90
7461;DHT22;6757;52.258;12.840;2023-11-21T08:43:42;4.80;99.90
7461;DHT22;6757;52.258;12.840;2023-11-21T08:46:10;4.80;99.90
7461;DHT22;6757;52.258;12.840;2023-11-21T08:48:41;4.80;99.90
7461;DHT22;6757;52.258;12.840;2023-11-21T08:51:10;4.80;99.90
7461;DHT22;6757;52.258;12.840;2023-11-21T08:53:38;4.70;99.90
7461;DHT22;6757;52.258;12.840;2023-11-21T08:56:06;4.80;99.90
7461;DHT22;6757;52.258;12.840;2023-11-21T08:58:34;4.70;99.90
7461;DHT22;6757;52.258;12.840;2023-11-21T09:01:04;4.90;99.90
7461;DHT22;6757;52.258;12.840;2023-11-21T09:03:32;4.70;99.90
7461;DHT22;6757;52.258;12.840;2023-11-21T09:06:00;4.70;99.90
7461;DHT22;6757;52.258;12.840;2023-11-21T09:08:29;4.90;99.90
7461;DHT22;6757;52.258;12.840;2023-11-21T09:10:56;4.60;99.90
7461;DHT22;6757;52.258;12.840;2023-11-21T09:13:22;4.90;99.90
7461;DHT22;6757;52.258;12.840;2023-11-21T09:15:50;4.90;99.90
7461;DHT22;6757;52.258;12.840;2023-11-21T09:18:18;4.80;99.90
7461;DHT22;6757;52.258;12.840;2023-11-21T09:20:46;4.80;99.90
7461;DHT22;6757;52.258;12.840;2023-11-21T09:23:13;4.80;99.90
7461;DHT22;6757;52.258;12.840;2023-11-21T09:25:41;4.80;99.90
7461;DHT22;6757;52.258;12.840;2023-11-21T09:28:11;4.80;99.90
7461;DHT22;6757;52.258;12.840;2023-11-21T09:30:38;4.90;99.90
7461;DHT22;6757;52.258;12.840;2023-11-21T09:33:05;4.90;99.90
7461;DHT22;6757;52.258;12.840;2023-11-21T09:35:35;4.90;99.90
7461;DHT22;6757;52.258;12.840;2023-11-21T09:38:03;4.90;99.90
7461;DHT22;6757;52.258;12.840;2023-11-21T09:40:35;4.80;99.90
7461;DHT22;6757;52.258;12.840;2023-11-21T09:43:06;4.90;99.90
7461;DHT22;6757;52.258;12.840;2023-11-21T09:45:45;4.80;99.90
7461;DHT22;6757;52.258;12.840;2023-11-21T09:48:13;4.80;99.90
7461;DHT22;6757;52.258;12.840;2023-11-21T09:50:43;4.80;99.90
7461;DHT22;6757;52.258;12.840;2023-11-21T09:53:13;4.80;99.90
7461;DHT22;6757;52.258;12.840;2023-11-21T09:55:47;4.80;99.90
7461;DHT22;6757;52.258;12.840;2023-11-21T09:58:16;4.80;99.90
7461;DHT22;6757;52.258;12.840;2023-11-21T10:00:47;4.80;99.90
7461;DHT22;6757;52.258;12.840;2023-11-21T10:03:16;4.80;99.90
7461;DHT22;6757;52.258;12.840;2023-11-21T10:05:45;4.80;99.90
7461;DHT22;6757;52.258;12.840;2023-11-21T10:08:12;4.90;99.90
7461;DHT22;6757;52.258;12.840;2023-11-21T10:10:44;4.80;99.90
7461;DHT22;6757;52.258;12.840;2023-11-21T10:13:13;4.80;99.90
7461;DHT22;6757;52.258;12.840;2023-11-21T10:15:43;4.80;99.90
7461;DHT22;6757;52.258;12.840;2023-11-21T10:18:15;4.80;99.90
7461;DHT22;6757;52.258;12.840;2023-11-21T10:20:42;4.80;99.90
7461;DHT22;6757;52.258;12.840;2023-11-21T10:23:13;4.80;99.90
7461;DHT22;6757;52.258;12.840;2023-11-21T10:25:41;4.80;99.90
7461;DHT22;6757;52.258;12.840;2023-11-21T10:28:09;4.70;99.90
7461;DHT22;6757;52.258;12.840;2023-11-21T10:30:39;4.70;99.90
7461;DHT22;6757;52.258;12.840;2023-11-21T10:33:07;4.70;99.90
7461;DHT22;6757;52.258;12.840;2023-11-21T10:35:43;4.70;99.90
7461;DHT22;6757;52.258;12.840;2023-11-21T10:38:17;4.70;99.90
7461;DHT22;6757;52.258;12.840;2023-11-21T10:40:46;4.60;99.90
7461;DHT22;6757;52.258;12.840;2023-11-21T10:43:15;4.60;99.90
7461;DHT22;6757;52.258;12.840;2023-11-21T10:45:43;4.60;99.90
7461;DHT22;6757;52.258;12.840;2023-11-21T10:48:12;4.60;99.90
7461;DHT22;6757;52.258;12.840;2023-11-21T10:50:43;4.60;99.90
7461;DHT22;6757;52.258;12.840;2023-11-21T10:53:10;4.60;99.90
7461;DHT22;6757;52.258;12.840;2023-11-21T10:55:40;4.60;99.90
7461;DHT22;6757;52.258;12.840;2023-11-21T10:58:10;4.60;99.90
7461;DHT22;6757;52.258;12.840;2023-11-21T11:00:41;4.50;99.90
7461;DHT22;6757;52.258;12.840;2023-11-21T11:03:09;4.60;99.90
7461;DHT22;6757;52.258;12.840;2023-11-21T11:05:40;4.50;99.90
7461;DHT22;6757;52.258;12.840;2023-11-21T11:08:18;4.50;99.90
7461;DHT22;6757;52.258;12.840;2023-11-21T11:10:46;4.60;99.90
7461;DHT22;6757;52.258;12.840;2023-11-21T11:13:14;4.40;99.90
7461;DHT22;6757;52.258;12.840;2023-11-21T11:15:41;4.50;99.90
7461;DHT22;6757;52.258;12.840;2023-11-21T11:18:10;4.60;99.90
7461;DHT22;6757;52.258;12.840;2023-11-21T11:20:39;4.50;99.90
7461;DHT22;6757;52.258;12.840;2023-11-21T11:23:33;4.50;99.90
7461;DHT22;6757;52.258;12.840;2023-11-21T11:26:18;4.50;99.90
7461;DHT22;6757;52.258;12.840;2023-11-21T11:28:57;4.40;99.90
7461;DHT22;6757;52.258;12.840;2023-11-21T11:31:39;4.60;99.90
7461;DHT22;6757;52.258;12.840;2023-11-21T11:34:19;4.50;99.90
7461;DHT22;6757;52.258;12.840;2023-11-21T11:36:55;4.50;99.90
7461;DHT22;6757;52.258;12.840;2023-11-21T11:39:29;4.60;99.90
7461;DHT22;6757;52.258;12.840;2023-11-21T11:42:02;4.60;99.90
7461;DHT22;6757;52.258;12.840;2023-11-21T11:44:47;4.60;99.90
7461;DHT22;6757;52.258;12.840;2023-11-21T11:47:20;4.60;99.90
7461;DHT22;6757;52.258;12.840;2023-11-21T11:49:57;4.60;99.90
7461;DHT22;6757;52.258;12.840;2023-11-21T11:52:38;4.60;99.90
7461;DHT22;6757;52.258;12.840;2023-11-21T11:55:08;4.60;99.90
7461;DHT22;6757;52.258;12.840;2023-11-21T11:57:38;4.60;99.90
7461;DHT22;6757;52.258;12.840;2023-11-21T12:00:14;4.60;99.90
7461;DHT22;6757;52.258;12.840;2023-11-21T12:02:45;4.60;99.90
7461;DHT22;6757;52.258;12.840;2023-11-21T12:05:14;4.50;99.90
7461;DHT22;6757;52.258;12.840;2023-11-21T12:07:44;4.60;99.90
7461;DHT22;6757;52.258;12.840;2023-11-21T12:10:13;4.60;99.90
7461;DHT22;6757;52.258;12.840;2023-11-21T12:12:45;4.60;99.90
7461;DHT22;6757;52.258;12.840;2023-11-21T12:15:13;4.50;99.90
7461;DHT22;6757;52.258;12.840;2023-11-21T12:17:42;4.50;99.90
7461;DHT22;6757;52.258;12.840;2023-11-21T12:20:10;4.50;99.90
7461;DHT22;6757;52.258;12.840;2023-11-21T12:22:43;4.50;99.90
7461;DHT22;6757;52.258;12.840;2023-11-21T12:25:13;4.50;99.90
7461;DHT22;6757;52.258;12.840;2023-11-21T12:27:43;4.60;99.90
7461;DHT22;6757;52.258;12.840;2023-11-21T12:30:12;4.50;99.90
7461;DHT22;6757;52.258;12.840;2023-11-21T12:32:41;4.50;99.90
7461;DHT22;6757;52.258;12.840;2023-11-21T12:35:09;4.50;99.90
7461;DHT22;6757;52.258;12.840;2023-11-21T12:37:38;4.50;99.90
7461;DHT22;6757;52.258;12.840;2023-11-21T12:40:09;4.50;99.90
7461;DHT22;6757;52.258;12.840;2023-11-21T12:42:42;4.50;99.90
7461;DHT22;6757;52.258;12.840;2023-11-21T12:45:19;4.50;99.90
7461;DHT22;6757;52.258;12.840;2023-11-21T12:47:47;4.60;99.90
7461;DHT22;6757;52.258;12.840;2023-11-21T12:50:18;4.60;99.90
7461;DHT22;6757;52.258;12.840;2023-11-21T12:52:49;4.60;99.90
7461;DHT22;6757;52.258;12.840;2023-11-21T12:55:19;4.60;99.90
7461;DHT22;6757;52.258;12.840;2023-11-21T12:57:50;4.60;99.90
7461;DHT22;6757;52.258;12.840;2023-11-21T13:00:27;4.60;99.90
7461;DHT22;6757;52.258;12.840;2023-11-21T13:02:56;4.60;99.90
7461;DHT22;6757;52.258;12.840;2023-11-21T13:05:28;4.80;99.90
7461;DHT22;6757;52.258;12.840;2023-11-21T13:07:57;4.70;99.90
7461;DHT22;6757;52.258;12.840;2023-11-21T13:10:28;4.60;99.90
7461;DHT22;6757;52.258;12.840;2023-11-21T13:12:58;4.60;99.90
7461;DHT22;6757;52.258;12.840;2023-11-21T13:15:25;4.60;99.90
7461;DHT22;6757;52.258;12.840;2023-11-21T13:17:54;4.60;99.90
7461;DHT22;6757;52.258;12.840;2023-11-21T13:20:22;4.60;99.90
7461;DHT22;6757;52.258;12.840;2023-11-21T13:22:50;4.60;99.90
7461;DHT22;6757;52.258;12.840;2023-11-21T13:25:20;4.70;99.90
7461;DHT22;6757;52.258;12.840;2023-11-21T13:27:48;4.60;99.90
7461;DHT22;6757;52.258;12.840;2023-11-21T13:30:21;4.60;99.90
7461;DHT22;6757;52.258;12.840;2023-11-21T13:32:52;4.60;99.90
7461;DHT22;6757;52.258;12.840;2023-11-21T13:35:22;4.60;99.90
7461;DHT22;6757;52.258;12.840;2023-11-21T13:37:57;4.60;99.90
7461;DHT22;6757;52.258;12.840;2023-11-21T13:40:25;4.60;99.90
7461;DHT22;6757;52.258;12.840;2023-11-21T13:42:53;4.60;99.90
7461;DHT22;6757;52.258;12.840;2023-11-21T13:45:22;4.50;99.90
7461;DHT22;6757;52.258;12.840;2023-11-21T13:47:50;4.70;99.90
7461;DHT22;6757;52.258;12.840;2023-11-21T13:50:20;4.50;99.90
7461;DHT22;6757;52.258;12.840;2023-11-21T13:52:51;4.50;99.90
7461;DHT22;6757;52.258;12.840;2023-11-21T13:55:19;4.50;99.90
7461;DHT22;6757;52.258;12.840;2023-11-21T13:57:51;4.50;99.90
7461;DHT22;6757;52.258;12.840;2023-11-21T14:00:19;4.40;99.90
7461;DHT22;6757;52.258;12.840;2023-11-21T14:03:03;4.40;99.90
7461;DHT22;6757;52.258;12.840;2023-11-21T14:05:36;4.40;99.90
7461;DHT22;6757;52.258;12.840;2023-11-21T14:08:03;4.40;99.90
7461;DHT22;6757;52.258;12.840;2023-11-21T14:10:31;4.30;99.90
7461;DHT22;6757;52.258;12.840;2023-11-21T14:13:05;4.30;99.90
7461;DHT22;6757;52.258;12.840;2023-11-21T14:15:32;4.20;99.90
7461;DHT22;6757;52.258;12.840;2023-11-21T14:18:05;4.20;99.90
7461;DHT22;6757;52.258;12.840;2023-11-21T14:20:36;4.50;99.90
7461;DHT22;6757;52.258;12.840;2023-11-21T14:23:03;4.30;99.90
7461;DHT22;6757;52.258;12.840;2023-11-21T14:25:32;4.30;99.90
7461;DHT22;6757;52.258;12.840;2023-11-21T14:28:02;4.40;99.90
7461;DHT22;6757;52.258;12.840;2023-11-21T14:30:31;4.50;99.90
7461;DHT22;6757;52.258;12.840;2023-11-21T14:33:00;4.60;99.90
7461;DHT22;6757;52.258;12.840;2023-11-21T14:35:30;4.60;99.90
7461;DHT22;6757;52.258;12.840;2023-11-21T14:37:58;4.70;99.90
7461;DHT22;6757;52.258;12.840;2023-11-21T14:40:28;4.70;99.90
7461;DHT22;6757;52.258;12.840;2023-11-21T14:42:59;4.90;99.90
7461;DHT22;6757;52.258;12.840;2023-11-21T14:45:26;4.80;99.90
7461;DHT22;6757;52.258;12.840;2023-11-21T14:47:54;4.80;99.90
7461;DHT22;6757;52.258;12.840;2023-11-21T14:50:33;4.90;99.90
7461;DHT22;6757;52.258;12.840;2023-11-21T14:53:37;4.90;99.90
7461;DHT22;6757;52.258;12.840;2023-11-21T14:56:18;4.90;99.90
7461;DHT22;6757;52.258;12.840;2023-11-21T14:58:52;4.90;99.90
7461;DHT22;6757;52.258;12.840;2023-11-21T15:01:19;4.80;99.90
7461;DHT22;6757;52.258;12.840;2023-11-21T15:04:08;4.70;99.90
7461;DHT22;6757;52.258;12.840;2023-11-21T15:06:41;4.60;99.90
7461;DHT22;6757;52.258;12.840;2023-11-21T15:09:09;4.60;99.90
7461;DHT22;6757;52.258;12.840;2023-11-21T15:12:09;4.40;99.90
7461;DHT22;6757;52.258;12.840;2023-11-21T15:14:41;4.30;99.90
7461;DHT22;6757;52.258;12.840;2023-11-21T15:17:08;4.30;99.90
7461;DHT22;6757;52.258;12.840;2023-11-21T15:19:35;4.20;99.90
7461;DHT22;6757;52.258;12.840;2023-11-21T15:22:05;4.20;99.90
7461;DHT22;6757;52.258;12.840;2023-11-21T15:24:33;4.20;99.90
7461;DHT22;6757;52.258;12.840;2023-11-21T15:27:01;4.20;99.90
7461;DHT22;6757;52.258;12.840;2023-11-21T15:29:31;4.10;99.90
7461;DHT22;6757;52.258;12.840;2023-11-21T15:32:00;4.10;99.90
7461;DHT22;6757;52.258;12.840;2023-11-21T15:34:27;4.10;99.90
7461;DHT22;6757;52.258;12.840;2023-11-21T15:36:56;4.10;99.90
7461;DHT22;6757;52.258;12.840;2023-11-21T15:39:25;4.00;99.90
7461;DHT22;6757;52.258;12.840;2023-11-21T15:41:55;3.90;99.90
7461;DHT22;6757;52.258;12.840;2023-11-21T15:44:22;3.80;99.90
7461;DHT22;6757;52.258;12.840;2023-11-21T15:46:51;3.80;99.90
7461;DHT22;6757;52.258;12.840;2023-11-21T15:49:18;3.70;99.90
7461;DHT22;6757;52.258;12.840;2023-11-21T15:51:48;3.60;99.90
7461;DHT22;6757;52.258;12.840;2023-11-21T15:54:21;3.60;99.90
7461;DHT22;6757;52.258;12.840;2023-11-21T15:56:52;3.50;99.90
7461;DHT22;6757;52.258;12.840;2023-11-21T15:59:22;3.30;99.90
7461;DHT22;6757;52.258;12.840;2023-11-21T16:01:54;3.40;99.90
7461;DHT22;6757;52.258;12.840;2023-11-21T16:04:23;3.40;99.90
7461;DHT22;6757;52.258;12.840;2023-11-21T16:06:52;3.40;99.90
7461;DHT22;6757;52.258;12.840;2023-11-21T16:09:20;3.40;99.90
7461;DHT22;6757;52.258;12.840;2023-11-21T16:11:48;3.40;99.90
7461;DHT22;6757;52.258;12.840;2023-11-21T16:14:21;3.30;99.90